createdAt,value
2023-01-28T00:01:50.215Z,101912.59
2023-01-28T00:04:18.427Z,101904.09
2023-01-28T00:06:46.413Z,101905.03
2023-01-28T00:09:14.417Z,101896.59
2023-01-28T00:11:42.682Z,101895.34
2023-01-28T00:14:13.484Z,101892.94
2023-01-28T00:16:41.665Z,101887.13
2023-01-28T00:19:09.902Z,101883.75
2023-01-28T00:21:37.896Z,101875.06
2023-01-28T00:24:07.071Z,101877.97
2023-01-28T00:26:35.231Z,101876.59
2023-01-28T00:29:03.258Z,101869.97
2023-01-28T00:31:34.355Z,101857.56
2023-01-28T00:34:02.671Z,101855.75
2023-01-28T00:36:30.631Z,101859.28
2023-01-28T00:39:00.184Z,101855.75
2023-01-28T00:41:31.000Z,101850.22
2023-01-28T00:44:00.375Z,101844.69
2023-01-28T00:46:28.457Z,101841.16
2023-01-28T00:48:58.050Z,101832.06
2023-01-28T00:51:26.119Z,101827.66
2023-01-28T00:53:54.122Z,101829.50
2023-01-28T00:56:22.158Z,101822.50
2023-01-28T00:58:50.475Z,101820.53
2023-01-28T01:01:20.918Z,101815.88
2023-01-28T01:03:54.466Z,101823.09
2023-01-28T01:06:26.076Z,101808.00
2023-01-28T01:08:54.019Z,101814.28
2023-01-28T01:11:21.930Z,101810.34
2023-01-28T01:13:54.989Z,101797.72
2023-01-28T01:16:24.647Z,101800.75
2023-01-28T01:18:53.229Z,101804.16
2023-01-28T01:21:24.081Z,101789.59
2023-01-28T01:23:54.366Z,101783.22
2023-01-28T01:26:23.827Z,101760.00
2023-01-28T01:28:52.310Z,101781.50
2023-01-28T01:31:22.231Z,101780.53
2023-01-28T01:33:51.512Z,101772.16
2023-01-28T01:36:22.020Z,101766.28
2023-01-28T01:38:55.974Z,101765.41
2023-01-28T01:41:27.721Z,101750.69
2023-01-28T01:43:57.226Z,101754.25
2023-01-28T01:46:31.801Z,101742.38
2023-01-28T01:49:07.739Z,101736.59
2023-01-28T01:51:37.624Z,101731.97
2023-01-28T01:54:08.483Z,101728.91
2023-01-28T01:56:41.477Z,101733.22
2023-01-28T01:59:14.031Z,101730.38
2023-01-28T02:01:42.889Z,101733.06
2023-01-28T02:04:16.757Z,101699.84
2023-01-28T02:06:48.304Z,101708.94
2023-01-28T02:09:26.979Z,101705.88
2023-01-28T02:11:57.976Z,101696.91
2023-01-28T02:14:31.951Z,101700.97
2023-01-28T02:17:01.710Z,101693.50
2023-01-28T02:19:35.634Z,101679.88
2023-01-28T02:22:19.359Z,101672.88
2023-01-28T02:25:32.444Z,101671.19
2023-01-28T02:28:16.151Z,101660.88
2023-01-28T02:30:53.326Z,101655.81
2023-01-28T02:33:30.623Z,101651.28
2023-01-28T02:36:04.549Z,101633.03
2023-01-28T02:38:38.313Z,101635.47
2023-01-28T02:41:10.695Z,101632.16
2023-01-28T02:43:43.187Z,101622.38
2023-01-28T02:46:39.687Z,101623.34
2023-01-28T02:49:13.103Z,101623.59
2023-01-28T02:51:54.954Z,101625.69
2023-01-28T02:54:32.497Z,101608.25
2023-01-28T02:57:11.300Z,101597.97
2023-01-28T02:59:49.523Z,101598.94
2023-01-28T03:02:24.482Z,101590.72
2023-01-28T03:05:00.417Z,101596.97
2023-01-28T03:07:30.993Z,101585.59
2023-01-28T03:10:04.287Z,101577.38
2023-01-28T03:12:51.133Z,101576.75
2023-01-28T03:15:41.034Z,101577.84
2023-01-28T03:18:31.945Z,101567.81
2023-01-28T03:21:23.926Z,101570.38
2023-01-28T03:24:14.988Z,101564.97
2023-01-28T03:27:07.059Z,101559.09
2023-01-28T03:29:53.913Z,101558.88
2023-01-28T03:32:42.200Z,101563.00
2023-01-28T03:35:30.588Z,101555.41
2023-01-28T03:38:00.387Z,101543.53
2023-01-28T03:40:29.569Z,101544.38
2023-01-28T03:42:57.660Z,101534.31
2023-01-28T03:45:35.973Z,101529.41
2023-01-28T03:48:08.160Z,101529.91
2023-01-28T03:50:36.153Z,101531.50
2023-01-28T03:53:16.377Z,101505.75
2023-01-28T03:55:56.589Z,101524.25
2023-01-28T03:58:27.147Z,101518.88
2023-01-28T04:00:55.668Z,101501.56
2023-01-28T04:03:25.033Z,101493.38
2023-01-28T04:06:01.646Z,101458.94
2023-01-28T04:08:49.262Z,101486.38
2023-01-28T04:11:29.544Z,101492.88
2023-01-28T04:13:58.863Z,101494.59
2023-01-28T04:16:28.988Z,101486.75
2023-01-28T04:18:59.460Z,101483.06
2023-01-28T04:21:27.686Z,101480.75
2023-01-28T04:23:55.801Z,101466.41
2023-01-28T04:26:24.258Z,101459.56
2023-01-28T04:28:52.289Z,101450.63
2023-01-28T04:31:20.569Z,101442.88
2023-01-28T04:34:18.019Z,101439.59
2023-01-28T04:37:15.217Z,101432.63
2023-01-28T04:39:46.771Z,101427.56
2023-01-28T04:42:20.829Z,101436.91
2023-01-28T04:45:06.602Z,101431.28
2023-01-28T04:47:47.514Z,101422.31
2023-01-28T04:50:35.826Z,101422.19
2023-01-28T04:53:14.949Z,101412.63
2023-01-28T04:55:55.030Z,101397.44
2023-01-28T04:58:23.550Z,101405.91
2023-01-28T05:00:56.819Z,101406.88
2023-01-28T05:03:25.905Z,101389.72
2023-01-28T05:05:55.623Z,101389.47
2023-01-28T05:08:34.315Z,101396.56
2023-01-28T05:11:02.636Z,101383.06
2023-01-28T05:13:30.709Z,101373.03
2023-01-28T05:15:59.367Z,101372.19
2023-01-28T05:18:27.363Z,101365.41
2023-01-28T05:21:10.668Z,101335.31
2023-01-28T05:23:40.451Z,101360.28
2023-01-28T05:26:08.885Z,101349.59
2023-01-28T05:28:37.346Z,101343.00
2023-01-28T05:31:06.312Z,101339.28
2023-01-28T05:33:35.127Z,101345.53
2023-01-28T05:36:05.998Z,101344.44
2023-01-28T05:38:35.527Z,101345.53
2023-01-28T05:41:03.837Z,101345.69
2023-01-28T05:43:33.138Z,101332.44
2023-01-28T05:46:15.002Z,101335.28
2023-01-28T05:49:08.620Z,101331.84
2023-01-28T05:51:55.246Z,101336.66
2023-01-28T05:54:25.464Z,101331.50
2023-01-28T05:56:55.214Z,101328.91
2023-01-28T05:59:23.370Z,101290.25
2023-01-28T06:01:53.999Z,101329.94
2023-01-28T06:04:22.525Z,101322.81
2023-01-28T06:06:50.841Z,101307.88
2023-01-28T06:09:18.953Z,101315.72
2023-01-28T06:11:50.269Z,101313.63
2023-01-28T06:14:19.114Z,101325.16
2023-01-28T06:16:55.809Z,101322.34
2023-01-28T06:19:44.562Z,101326.13
2023-01-28T06:22:12.594Z,101326.03
2023-01-28T06:24:40.536Z,101330.31
2023-01-28T06:27:11.042Z,101325.41
2023-01-28T06:29:39.022Z,101323.41
2023-01-28T06:32:07.285Z,101313.03
2023-01-28T06:34:35.203Z,101323.75
2023-01-28T06:37:04.316Z,101331.59
2023-01-28T06:39:33.316Z,101324.22
2023-01-28T06:42:01.749Z,101312.25
2023-01-28T06:44:31.026Z,101323.84
2023-01-28T06:46:59.000Z,101320.53
2023-01-28T06:49:26.969Z,101336.47
2023-01-28T06:51:54.867Z,101322.03
2023-01-28T06:54:22.964Z,101316.47
2023-01-28T06:56:50.982Z,101316.34
2023-01-28T06:59:19.009Z,101310.69
2023-01-28T07:01:48.460Z,101299.91
2023-01-28T07:04:16.683Z,101296.22
2023-01-28T07:06:44.743Z,101305.03
2023-01-28T07:09:12.716Z,101296.22
2023-01-28T07:11:40.724Z,101304.59
2023-01-28T07:14:08.778Z,101301.03
2023-01-28T07:16:36.793Z,101300.69
2023-01-28T07:19:06.193Z,101299.84
2023-01-28T07:21:34.169Z,101286.47
2023-01-28T07:24:02.088Z,101305.75
2023-01-28T07:26:30.095Z,101307.00
2023-01-28T07:28:58.003Z,101308.94
2023-01-28T07:31:26.029Z,101309.31
2023-01-28T07:33:54.174Z,101303.34
2023-01-28T07:36:23.573Z,101319.63
2023-01-28T07:38:51.545Z,101306.38
2023-01-28T07:41:19.464Z,101308.25
2023-01-28T07:43:47.477Z,101287.44
2023-01-28T07:46:15.415Z,101290.72
2023-01-28T07:48:43.346Z,101281.03
2023-01-28T07:51:11.487Z,101268.88
2023-01-28T07:53:40.968Z,101269.16
2023-01-28T07:56:09.127Z,101281.53
2023-01-28T07:58:37.146Z,101273.94
2023-01-28T08:01:05.503Z,101271.00
2023-01-28T08:03:33.436Z,101260.22
2023-01-28T08:06:01.368Z,101252.84
2023-01-28T08:08:29.362Z,101243.66
2023-01-28T08:10:58.731Z,101252.31
2023-01-28T08:13:27.074Z,101254.19
2023-01-28T08:15:57.338Z,101256.34
2023-01-28T08:18:25.427Z,101250.38
2023-01-28T08:20:56.912Z,101247.13
2023-01-28T08:23:26.917Z,101250.69
2023-01-28T08:25:55.513Z,101213.28
2023-01-28T08:28:25.056Z,101234.25
2023-01-28T08:30:53.293Z,101221.75
2023-01-28T08:33:21.863Z,101217.22
2023-01-28T08:35:49.906Z,101221.50
2023-01-28T08:38:18.127Z,101222.25
2023-01-28T08:40:46.194Z,101240.00
2023-01-28T08:43:14.478Z,101242.53
2023-01-28T08:45:43.968Z,101248.09
2023-01-28T08:48:15.864Z,101246.22
2023-01-28T08:50:44.648Z,101243.66
2023-01-28T08:53:14.248Z,101243.81
2023-01-28T08:55:42.304Z,101238.41
2023-01-28T08:58:12.910Z,101235.72
2023-01-28T09:00:41.884Z,101234.84
2023-01-28T09:03:12.262Z,101230.44
2023-01-28T09:05:40.598Z,101199.50
2023-01-28T09:08:10.109Z,101227.88
2023-01-28T09:10:38.633Z,101217.22
2023-01-28T09:13:07.432Z,101202.03
2023-01-28T09:15:35.606Z,101206.56
2023-01-28T09:18:03.695Z,101210.13
2023-01-28T09:20:34.127Z,101193.19
2023-01-28T09:23:03.128Z,101183.69
2023-01-28T09:25:31.418Z,101176.44
2023-01-28T09:28:00.089Z,101146.13
2023-01-28T09:30:28.945Z,101180.84
2023-01-28T09:32:58.427Z,101196.91
2023-01-28T09:35:26.513Z,101179.16
2023-01-28T09:38:00.230Z,101147.16
2023-01-28T09:40:35.729Z,101151.53
2023-01-28T09:43:41.620Z,101152.69
2023-01-28T09:46:14.449Z,101162.88
2023-01-28T09:48:47.663Z,101151.13
2023-01-28T09:51:29.804Z,101153.56
2023-01-28T09:54:03.297Z,101155.81
2023-01-28T09:56:33.385Z,101152.97
2023-01-28T09:59:20.259Z,101156.38
2023-01-28T10:01:55.486Z,101151.13
2023-01-28T10:04:38.145Z,101149.41
2023-01-28T10:07:18.677Z,101142.19
2023-01-28T10:09:53.485Z,101143.03
2023-01-28T10:12:45.769Z,101139.47
2023-01-28T10:15:33.851Z,101133.22
2023-01-28T10:18:17.154Z,101135.09
2023-01-28T10:20:50.794Z,101124.44
2023-01-28T10:23:23.686Z,101121.00
2023-01-28T10:25:54.528Z,101115.63
2023-01-28T10:28:25.513Z,101116.59
2023-01-28T10:30:53.919Z,101117.69
2023-01-28T10:33:26.853Z,101088.03
2023-01-28T10:35:56.650Z,101080.81
2023-01-28T10:38:27.139Z,101083.66
2023-01-28T10:41:01.433Z,101089.03
2023-01-28T10:43:33.481Z,101084.78
2023-01-28T10:46:05.911Z,101082.00
2023-01-28T10:48:37.779Z,101091.28
2023-01-28T10:51:06.836Z,101091.41
2023-01-28T10:53:36.988Z,101101.19
2023-01-28T10:56:09.123Z,101104.75
2023-01-28T10:58:48.232Z,101096.94
2023-01-28T11:01:16.284Z,101074.91
2023-01-28T11:03:55.565Z,101092.78
2023-01-28T11:06:28.351Z,101099.72
2023-01-28T11:08:56.963Z,101083.06
2023-01-28T11:11:27.877Z,101081.69
2023-01-28T11:13:58.732Z,101069.78
2023-01-28T11:16:27.713Z,101065.97
2023-01-28T11:18:58.824Z,101065.72
2023-01-28T11:21:28.859Z,101053.41
2023-01-28T11:24:00.145Z,101054.97
2023-01-28T11:26:33.305Z,101061.22
2023-01-28T11:29:01.597Z,101053.66
2023-01-28T11:31:29.938Z,101051.53
2023-01-28T11:34:00.683Z,101048.69
2023-01-28T11:36:30.519Z,101048.41
2023-01-28T11:39:00.225Z,101052.00
2023-01-28T11:41:31.578Z,101049.66
2023-01-28T11:44:01.280Z,101049.34
2023-01-28T11:46:45.744Z,101051.66
2023-01-28T11:49:25.867Z,101041.16
2023-01-28T11:52:01.066Z,101046.03
2023-01-28T11:54:44.404Z,101037.66
2023-01-28T11:57:23.705Z,101036.53
2023-01-28T12:00:20.930Z,101034.41
2023-01-28T12:02:54.551Z,101034.28
2023-01-28T12:05:50.757Z,101037.69
2023-01-28T12:08:25.744Z,101019.38
2023-01-28T12:11:13.847Z,101009.31
2023-01-28T12:13:56.650Z,101030.03
2023-01-28T12:16:39.905Z,101024.34
2023-01-28T12:19:33.989Z,101024.88
2023-01-28T12:22:16.665Z,101020.19
2023-01-28T12:24:58.154Z,101019.06
2023-01-28T12:27:36.173Z,101008.53
2023-01-28T12:30:23.056Z,101019.47
2023-01-28T12:33:04.932Z,101021.44
2023-01-28T12:35:52.250Z,101025.13
2023-01-28T12:38:30.762Z,101029.78
2023-01-28T12:41:08.656Z,101025.41
2023-01-28T12:43:47.121Z,101021.69
2023-01-28T12:46:26.432Z,101028.22
2023-01-28T12:49:01.198Z,101021.13
2023-01-28T12:51:33.992Z,101016.72
2023-01-28T12:54:07.540Z,101026.53
2023-01-28T12:56:38.997Z,101023.94
2023-01-28T12:59:12.780Z,101024.81
2023-01-28T13:01:47.552Z,101002.06
2023-01-28T13:04:26.666Z,101014.28
2023-01-28T13:06:59.651Z,101024.25
2023-01-28T13:09:31.233Z,101020.81
2023-01-28T13:12:01.684Z,101014.59
2023-01-28T13:14:31.898Z,101014.59
2023-01-28T13:17:11.670Z,101028.91
2023-01-28T13:19:42.201Z,101031.88
2023-01-28T13:22:29.028Z,101025.50
2023-01-28T13:24:57.146Z,101020.38
2023-01-28T13:27:27.411Z,101024.91
2023-01-28T13:30:05.465Z,101023.91
2023-01-28T13:32:36.943Z,101014.25
2023-01-28T13:35:08.211Z,101014.25
2023-01-28T13:37:39.820Z,101027.75
2023-01-28T13:40:23.744Z,101042.09
2023-01-28T13:43:00.979Z,101030.59
2023-01-28T13:45:29.138Z,101039.38
2023-01-28T13:48:03.371Z,101029.31
2023-01-28T13:50:40.390Z,101035.56
2023-01-28T13:53:22.055Z,101023.78
2023-01-28T13:55:53.113Z,101030.03
2023-01-28T13:59:02.042Z,101024.63
2023-01-28T14:02:05.503Z,101028.88
2023-01-28T14:05:09.169Z,101040.09
2023-01-28T14:08:23.787Z,101034.00
2023-01-28T14:11:04.891Z,101036.69
2023-01-28T14:13:52.949Z,101031.28
2023-01-28T14:16:43.379Z,101033.41
2023-01-28T14:19:14.577Z,101043.06
2023-01-28T14:21:44.066Z,101050.19
2023-01-28T14:24:18.142Z,101051.88
2023-01-28T14:26:59.276Z,101054.84
2023-01-28T14:29:50.833Z,101045.75
2023-01-28T14:32:23.075Z,101059.25
2023-01-28T14:34:51.356Z,101061.06
2023-01-28T14:37:24.077Z,101047.47
2023-01-28T14:39:57.378Z,101069.16
2023-01-28T14:42:27.504Z,101058.69
2023-01-28T14:45:08.931Z,101062.19
2023-01-28T14:48:02.665Z,101034.28
2023-01-28T14:50:45.336Z,101054.41
2023-01-28T14:53:30.676Z,101054.41
2023-01-28T14:56:08.509Z,101054.41
2023-01-28T14:58:40.361Z,101064.44
2023-01-28T15:01:21.847Z,101060.06
2023-01-28T15:03:49.928Z,101079.66
2023-01-28T15:06:20.387Z,101071.56
2023-01-28T15:08:49.717Z,101075.13
2023-01-28T15:11:22.488Z,101081.22
2023-01-28T15:13:54.779Z,101074.09
2023-01-28T15:16:25.543Z,101069.47
2023-01-28T15:18:53.910Z,101077.66
2023-01-28T15:21:23.200Z,101077.81
2023-01-28T15:23:56.487Z,101072.69
2023-01-28T15:26:26.708Z,101068.41
2023-01-28T15:28:56.049Z,101041.91
2023-01-28T15:31:26.502Z,101072.94
2023-01-28T15:33:59.176Z,101050.97
2023-01-28T15:36:27.845Z,101062.69
2023-01-28T15:38:57.914Z,101056.47
2023-01-28T15:41:30.528Z,101050.44
2023-01-28T15:43:58.660Z,101053.13
2023-01-28T15:46:26.859Z,101055.94
2023-01-28T15:49:00.640Z,101062.09
2023-01-28T15:51:32.010Z,101062.34
2023-01-28T15:54:05.124Z,101065.16
2023-01-28T15:56:33.934Z,101063.59
2023-01-28T15:59:20.858Z,101061.75
2023-01-28T16:01:48.900Z,101058.34
2023-01-28T16:04:24.745Z,101064.59
2023-01-28T16:06:54.731Z,101068.41
2023-01-28T16:09:28.648Z,101073.66
2023-01-28T16:12:03.133Z,101072.78
2023-01-28T16:14:35.290Z,101039.69
2023-01-28T16:17:03.414Z,101045.28
2023-01-28T16:19:37.848Z,101045.00
2023-01-28T16:22:06.741Z,101054.06
2023-01-28T16:24:37.325Z,101061.28
2023-01-28T16:27:08.061Z,101064.13
2023-01-28T16:29:36.979Z,101071.22
2023-01-28T16:32:05.044Z,101066.81
2023-01-28T16:34:33.045Z,101066.81
2023-01-28T16:37:01.794Z,101068.66
2023-01-28T16:39:30.543Z,101070.50
2023-01-28T16:42:00.352Z,101073.91
2023-01-28T16:44:28.311Z,101090.94
2023-01-28T16:46:56.437Z,101084.84
2023-01-28T16:49:24.779Z,101084.97
2023-01-28T16:51:53.634Z,101084.56
2023-01-28T16:54:21.657Z,101087.13
2023-01-28T16:56:50.312Z,101082.59
2023-01-28T16:59:19.750Z,101074.38
2023-01-28T17:01:48.422Z,101078.78
2023-01-28T17:04:16.731Z,101076.94
2023-01-28T17:06:45.721Z,101074.09
2023-01-28T17:09:15.745Z,101075.22
2023-01-28T17:11:44.240Z,101084.78
2023-01-28T17:14:12.401Z,101086.59
2023-01-28T17:16:41.871Z,101084.78
2023-01-28T17:19:09.861Z,101078.63
2023-01-28T17:21:37.914Z,101072.25
2023-01-28T17:24:06.789Z,101068.59
2023-01-28T17:26:35.365Z,101066.88
2023-01-28T17:29:04.136Z,101060.38
2023-01-28T17:31:32.219Z,101068.44
2023-01-28T17:34:02.483Z,101072.97
2023-01-28T17:36:30.554Z,101068.72
2023-01-28T17:38:58.633Z,101063.31
2023-01-28T17:41:26.609Z,101072.00
2023-01-28T17:43:56.398Z,101070.91
2023-01-28T17:46:25.832Z,101066.47
2023-01-28T17:48:54.085Z,101067.47
2023-01-28T17:51:23.725Z,101061.94
2023-01-28T17:53:53.288Z,101062.94
2023-01-28T17:56:23.040Z,101058.06
2023-01-28T17:58:52.000Z,101028.44
2023-01-28T18:01:20.288Z,101052.94
2023-01-28T18:03:48.521Z,101060.63
2023-01-28T18:06:16.838Z,101050.72
2023-01-28T18:08:46.696Z,101050.09
2023-01-28T18:11:17.121Z,101065.75
2023-01-28T18:13:46.158Z,101061.34
2023-01-28T18:16:18.001Z,101057.94
2023-01-28T18:18:46.482Z,101041.25
2023-01-28T18:21:23.924Z,101072.22
2023-01-28T18:23:56.307Z,101061.50
2023-01-28T18:26:24.257Z,101068.03
2023-01-28T18:28:52.231Z,101062.53
2023-01-28T18:31:20.562Z,101058.25
2023-01-28T18:33:48.883Z,101062.19
2023-01-28T18:36:17.604Z,101054.66
2023-01-28T18:38:45.868Z,101050.97
2023-01-28T18:41:15.687Z,101057.94
2023-01-28T18:43:43.947Z,101050.00
2023-01-28T18:46:13.608Z,101054.13
2023-01-28T18:48:42.222Z,101066.91
2023-01-28T18:51:28.466Z,101067.66
2023-01-28T18:53:59.179Z,101061.41
2023-01-28T18:56:28.935Z,101073.69
2023-01-28T18:58:57.723Z,101070.72
2023-01-28T19:01:25.874Z,101066.59
2023-01-28T19:03:54.494Z,101060.06
2023-01-28T19:06:22.463Z,101066.91
2023-01-28T19:08:53.752Z,101063.81
2023-01-28T19:11:22.177Z,101064.25
2023-01-28T19:13:52.069Z,101069.84
2023-01-28T19:16:20.707Z,100979.66
2023-01-28T19:18:52.729Z,101056.25
2023-01-28T19:21:21.516Z,101051.41
2023-01-28T19:23:50.536Z,101044.59
2023-01-28T19:26:21.420Z,101036.91
2023-01-28T19:28:51.274Z,101040.38
2023-01-28T19:31:20.808Z,101056.28
2023-01-28T19:33:50.104Z,101065.78
2023-01-28T19:36:18.104Z,101049.44
2023-01-28T19:38:46.101Z,101056.41
2023-01-28T19:41:16.286Z,101039.06
2023-01-28T19:43:44.831Z,101045.22
2023-01-28T19:46:18.101Z,101050.34
2023-01-28T19:48:46.608Z,101037.66
2023-01-28T19:51:16.232Z,101032.13
2023-01-28T19:53:45.442Z,101031.84
2023-01-28T19:56:18.580Z,101026.13
2023-01-28T19:58:47.287Z,101032.41
2023-01-28T20:01:18.400Z,101029.56
2023-01-28T20:03:47.149Z,101033.97
2023-01-28T20:06:17.107Z,101031.84
2023-01-28T20:08:45.851Z,101034.41
2023-01-28T20:11:16.919Z,101013.94
2023-01-28T20:13:46.396Z,101049.47
2023-01-28T20:16:19.168Z,101049.81
2023-01-28T20:18:50.161Z,101044.22
2023-01-28T20:21:19.820Z,101039.38
2023-01-28T20:23:48.715Z,101031.53
2023-01-28T20:26:17.544Z,101027.44
2023-01-28T20:28:45.574Z,101026.00
2023-01-28T20:31:13.824Z,101019.91
2023-01-28T20:33:43.234Z,100999.13
2023-01-28T20:36:13.273Z,101009.38
2023-01-28T20:38:42.756Z,101007.69
2023-01-28T20:41:13.684Z,101004.13
2023-01-28T20:43:44.544Z,101002.56
2023-01-28T20:46:14.713Z,101004.53
2023-01-28T20:48:44.778Z,101006.25
2023-01-28T20:51:14.795Z,100997.16
2023-01-28T20:53:44.691Z,101000.00
2023-01-28T20:56:14.639Z,100999.13
2023-01-28T20:58:43.666Z,101012.94
2023-01-28T21:01:18.225Z,101018.34
2023-01-28T21:03:48.249Z,101012.34
2023-01-28T21:06:16.768Z,101000.97
2023-01-28T21:08:45.219Z,100999.56
2023-01-28T21:11:13.871Z,100997.00
2023-01-28T21:13:42.010Z,101008.66
2023-01-28T21:16:10.162Z,100998.00
2023-01-28T21:18:38.154Z,100991.75
2023-01-28T21:21:09.074Z,100988.22
2023-01-28T21:23:37.107Z,100988.91
2023-01-28T21:26:07.425Z,100982.66
2023-01-28T21:28:35.390Z,100977.41
2023-01-28T21:31:08.529Z,100970.28
2023-01-28T21:33:36.990Z,100971.28
2023-01-28T21:36:11.456Z,100979.81
2023-01-28T21:38:39.464Z,100975.53
2023-01-28T21:41:08.238Z,100981.09
2023-01-28T21:43:36.409Z,100982.94
2023-01-28T21:46:04.952Z,100962.59
2023-01-28T21:48:33.092Z,100972.28
2023-01-28T21:51:28.570Z,100978.41
2023-01-28T21:53:56.682Z,100991.31
2023-01-28T21:56:24.733Z,100990.31
2023-01-28T21:59:06.553Z,100992.00
2023-01-28T22:01:34.631Z,100986.63
2023-01-28T22:04:03.007Z,100984.94
2023-01-28T22:06:32.542Z,100974.25
2023-01-28T22:09:00.525Z,100975.28
2023-01-28T22:11:28.425Z,100968.16
2023-01-28T22:13:56.371Z,100969.16
2023-01-28T22:16:24.332Z,100962.06
2023-01-28T22:18:52.340Z,100964.47
2023-01-28T22:21:20.279Z,100965.19
2023-01-28T22:23:50.068Z,100970.56
2023-01-28T22:26:18.118Z,100977.69
2023-01-28T22:28:46.131Z,100976.97
2023-01-28T22:31:16.025Z,100973.81
2023-01-28T22:33:44.326Z,100975.13
2023-01-28T22:36:15.816Z,100975.00
2023-01-28T22:38:45.465Z,100971.44
2023-01-28T22:41:19.204Z,100971.44
2023-01-28T22:43:48.045Z,100965.88
2023-01-28T22:46:16.624Z,100943.00
2023-01-28T22:48:45.193Z,100962.31
2023-01-28T22:51:17.719Z,100955.94
2023-01-28T22:53:47.040Z,100946.13
2023-01-28T22:56:18.140Z,100916.03
2023-01-28T22:58:46.419Z,100954.53
2023-01-28T23:01:15.482Z,100950.28
2023-01-28T23:03:46.832Z,100934.91
2023-01-28T23:06:16.595Z,100945.84
2023-01-28T23:08:45.202Z,100932.38
2023-01-28T23:11:16.011Z,100927.81
2023-01-28T23:14:03.630Z,100921.56
2023-01-28T23:16:49.647Z,100915.75
2023-01-28T23:19:35.822Z,100919.41
2023-01-28T23:22:21.172Z,100923.84
2023-01-28T23:24:49.265Z,100911.91
2023-01-28T23:27:17.178Z,100903.38
2023-01-28T23:29:46.500Z,100903.25
2023-01-28T23:32:14.487Z,100893.59
2023-01-28T23:34:44.590Z,100887.59
2023-01-28T23:37:13.988Z,100882.50
2023-01-28T23:39:42.615Z,100868.88
2023-01-28T23:42:12.151Z,100897.13
2023-01-28T23:44:40.128Z,100878.09
2023-01-28T23:47:10.253Z,100882.63
2023-01-28T23:49:38.578Z,100883.63
2023-01-28T23:52:07.528Z,100885.31
2023-01-28T23:54:36.116Z,100887.03
2023-01-28T23:57:04.777Z,100879.66
2023-01-28T23:59:32.709Z,100883.19
